createdAt,value
2022-10-24T00:02:37.245Z,12.00
2022-10-24T00:05:34.100Z,11.94
2022-10-24T00:08:30.914Z,11.79
2022-10-24T00:11:28.739Z,11.69
2022-10-24T00:14:26.059Z,11.79
2022-10-24T00:17:22.898Z,11.64
2022-10-24T00:20:19.813Z,11.56
2022-10-24T00:23:16.883Z,11.48
2022-10-24T00:26:14.297Z,11.49
2022-10-24T00:29:11.987Z,11.50
2022-10-24T00:32:09.205Z,11.37
2022-10-24T00:35:06.705Z,11.33
2022-10-24T00:38:03.532Z,11.32
2022-10-24T00:41:00.385Z,11.26
2022-10-24T00:44:24.890Z,11.15
2022-10-24T00:47:27.040Z,11.24
2022-10-24T00:50:23.973Z,11.16
2022-10-24T00:53:22.291Z,11.14
2022-10-24T00:56:24.913Z,11.19
2022-10-24T00:59:22.466Z,11.26
2022-10-24T01:02:19.563Z,11.22
2022-10-24T01:05:18.899Z,12.45
2022-10-24T01:08:36.667Z,12.60
2022-10-24T01:12:15.239Z,12.49
2022-10-24T01:15:28.764Z,12.61
2022-10-24T01:18:49.980Z,12.61
2022-10-24T01:21:55.748Z,12.22
2022-10-24T01:25:19.953Z,12.41
2022-10-24T01:28:27.268Z,12.16
2022-10-24T01:31:34.228Z,12.23
2022-10-24T01:34:47.503Z,11.98
2022-10-24T01:38:14.947Z,11.68
2022-10-24T01:41:21.190Z,11.50
2022-10-24T01:44:26.238Z,11.40
2022-10-24T01:47:49.113Z,11.29
2022-10-24T01:50:48.170Z,11.20
2022-10-24T01:53:46.590Z,11.49
2022-10-24T01:56:43.521Z,11.37
2022-10-24T01:59:58.729Z,11.11
2022-10-24T02:03:39.032Z,11.37
2022-10-24T02:06:40.884Z,11.37
2022-10-24T02:09:39.881Z,11.37
2022-10-24T02:12:42.591Z,11.30
2022-10-24T02:15:46.689Z,11.17
2022-10-24T02:18:44.520Z,11.14
2022-10-24T02:22:07.267Z,11.29
2022-10-24T02:25:33.541Z,11.31
2022-10-24T02:28:38.707Z,11.42
2022-10-24T02:31:43.259Z,11.23
2022-10-24T02:34:42.185Z,11.51
2022-10-24T02:37:51.730Z,11.71
2022-10-24T02:40:50.693Z,12.22
2022-10-24T02:43:49.758Z,12.31
2022-10-24T02:46:48.092Z,12.56
2022-10-24T02:49:44.977Z,12.51
2022-10-24T02:52:43.923Z,12.51
2022-10-24T02:55:41.753Z,12.56
2022-10-24T02:58:38.618Z,12.30
2022-10-24T03:01:35.649Z,12.51
2022-10-24T03:04:32.659Z,12.62
2022-10-24T03:10:27.332Z,12.57
2022-10-24T03:13:24.201Z,12.25
2022-10-24T03:16:21.034Z,12.03
2022-10-24T03:19:17.993Z,12.49
2022-10-24T03:22:14.842Z,12.30
2022-10-24T03:25:11.967Z,12.89
2022-10-24T03:28:08.820Z,12.72
2022-10-24T03:31:06.488Z,12.80
2022-10-24T03:34:03.346Z,12.75
2022-10-24T03:37:00.214Z,12.73
2022-10-24T03:39:57.089Z,12.52
2022-10-24T03:42:53.900Z,12.44
2022-10-24T03:45:54.458Z,12.35
2022-10-24T03:48:52.345Z,12.52
2022-10-24T03:51:49.277Z,12.55
2022-10-24T03:54:46.309Z,12.55
2022-10-24T03:57:43.299Z,12.70
2022-10-24T04:00:41.514Z,12.56
2022-10-24T04:03:38.431Z,12.29
2022-10-24T04:06:36.567Z,12.53
2022-10-24T04:09:33.750Z,12.62
2022-10-24T04:12:30.587Z,12.63
2022-10-24T04:15:27.521Z,12.65
2022-10-24T04:18:24.618Z,12.59
2022-10-24T04:21:22.083Z,12.54
2022-10-24T04:24:19.192Z,12.47
2022-10-24T04:27:16.664Z,12.42
2022-10-24T04:30:16.703Z,12.68
2022-10-24T04:33:15.943Z,12.50
2022-10-24T04:36:12.940Z,12.13
2022-10-24T04:39:09.796Z,12.44
2022-10-24T04:42:06.644Z,12.19
2022-10-24T04:45:03.848Z,12.39
2022-10-24T04:48:00.691Z,12.19
2022-10-24T04:50:57.712Z,12.48
2022-10-24T04:53:54.657Z,12.33
2022-10-24T04:56:51.506Z,12.28
2022-10-24T04:59:48.360Z,12.12
2022-10-24T05:02:45.357Z,12.49
2022-10-24T05:05:42.303Z,12.52
2022-10-24T05:08:39.244Z,12.56
2022-10-24T05:11:36.185Z,12.60
2022-10-24T05:14:33.156Z,12.46
2022-10-24T05:17:30.068Z,12.46
2022-10-24T05:20:27.721Z,12.51
2022-10-24T05:23:25.387Z,12.36
2022-10-24T05:26:22.245Z,12.35
2022-10-24T05:29:19.115Z,12.22
2022-10-24T05:32:15.944Z,12.05
2022-10-24T05:35:12.941Z,12.24
2022-10-24T05:38:09.961Z,12.00
2022-10-24T05:41:06.769Z,12.18
2022-10-24T05:44:03.849Z,12.41
2022-10-24T05:47:00.771Z,12.29
2022-10-24T05:49:57.591Z,12.15
2022-10-24T05:52:54.470Z,12.39
2022-10-24T05:55:51.396Z,12.32
2022-10-24T05:58:48.215Z,12.58
2022-10-24T06:01:45.149Z,12.61
2022-10-24T06:04:42.054Z,12.58
2022-10-24T06:07:39.576Z,12.54
2022-10-24T06:10:36.862Z,12.45
2022-10-24T06:13:36.073Z,12.62
2022-10-24T06:16:34.152Z,12.61
2022-10-24T06:19:31.228Z,12.65
2022-10-24T06:22:29.755Z,12.73
2022-10-24T06:25:26.647Z,12.60
2022-10-24T06:28:23.740Z,12.59
2022-10-24T06:31:20.886Z,12.34
2022-10-24T06:34:17.881Z,12.28
2022-10-24T06:37:15.136Z,12.15
2022-10-24T06:40:12.244Z,12.16
2022-10-24T06:43:09.610Z,12.33
2022-10-24T06:46:09.523Z,12.42
2022-10-24T06:49:06.869Z,12.36
2022-10-24T06:52:04.166Z,12.47
2022-10-24T06:55:01.008Z,12.34
2022-10-24T06:57:57.838Z,12.31
2022-10-24T07:00:54.785Z,12.45
2022-10-24T07:03:52.528Z,12.35
2022-10-24T07:06:49.374Z,12.38
2022-10-24T07:09:56.454Z,12.39
2022-10-24T07:12:53.339Z,12.47
2022-10-24T07:15:54.266Z,12.30
2022-10-24T07:18:51.193Z,12.16
2022-10-24T07:21:48.026Z,12.14
2022-10-24T07:24:46.130Z,12.22
2022-10-24T07:27:42.953Z,12.17
2022-10-24T07:30:40.205Z,12.22
2022-10-24T07:33:39.220Z,12.24
2022-10-24T07:36:41.378Z,12.25
2022-10-24T07:39:39.891Z,12.27
2022-10-24T07:42:36.773Z,12.31
2022-10-24T07:45:33.660Z,12.27
2022-10-24T07:48:30.476Z,12.40
2022-10-24T07:51:31.551Z,12.58
2022-10-24T07:54:30.679Z,12.69
2022-10-24T07:57:29.945Z,12.56
2022-10-24T08:00:26.783Z,12.69
2022-10-24T08:03:23.651Z,12.68
2022-10-24T08:06:24.637Z,12.63
2022-10-24T08:09:21.772Z,12.71
2022-10-24T08:12:18.677Z,12.63
2022-10-24T08:15:15.574Z,12.72
2022-10-24T08:18:12.453Z,12.77
2022-10-24T08:21:13.491Z,12.85
2022-10-24T08:24:10.396Z,12.96
2022-10-24T08:27:07.234Z,12.87
2022-10-24T08:30:05.216Z,12.85
2022-10-24T08:33:02.032Z,13.04
2022-10-24T08:36:04.275Z,12.99
2022-10-24T08:39:02.494Z,13.04
2022-10-24T08:42:07.100Z,13.15
2022-10-24T08:45:04.431Z,13.26
2022-10-24T08:48:09.069Z,13.27
2022-10-24T08:51:36.386Z,13.17
2022-10-24T08:54:42.386Z,13.40
2022-10-24T08:57:39.945Z,13.30
2022-10-24T09:00:44.938Z,13.27
2022-10-24T09:04:06.390Z,13.51
2022-10-24T09:07:04.125Z,13.43
2022-10-24T09:10:24.282Z,13.47
2022-10-24T09:13:23.819Z,13.50
2022-10-24T09:16:24.069Z,13.48
2022-10-24T09:19:27.528Z,13.49
2022-10-24T09:22:28.560Z,13.64
2022-10-24T09:25:34.971Z,13.42
2022-10-24T09:28:37.882Z,13.39
2022-10-24T09:31:35.464Z,13.57
2022-10-24T09:34:32.369Z,13.57
2022-10-24T09:37:56.063Z,13.67
2022-10-24T09:40:58.991Z,13.41
2022-10-24T09:44:04.461Z,13.47
2022-10-24T09:47:04.345Z,13.56
2022-10-24T09:50:01.223Z,13.59
2022-10-24T09:52:59.638Z,13.70
2022-10-24T09:56:12.497Z,13.72
2022-10-24T09:59:58.583Z,13.86
2022-10-24T10:03:23.642Z,13.78
2022-10-24T10:06:21.521Z,13.71
2022-10-24T10:09:32.878Z,13.78
2022-10-24T10:12:34.893Z,13.99
2022-10-24T10:15:39.146Z,13.88
2022-10-24T10:18:38.802Z,13.70
2022-10-24T10:22:03.853Z,13.82
2022-10-24T10:25:01.073Z,13.78
2022-10-24T10:28:01.059Z,13.86
2022-10-24T10:31:00.995Z,13.78
2022-10-24T10:34:21.211Z,13.97
2022-10-24T10:37:31.401Z,13.85
2022-10-24T10:40:56.098Z,13.85
2022-10-24T10:44:05.437Z,13.80
2022-10-24T10:47:35.547Z,13.91
2022-10-24T10:51:10.275Z,13.78
2022-10-24T10:54:31.464Z,14.13
2022-10-24T10:57:49.299Z,13.71
2022-10-24T11:01:22.949Z,13.99
2022-10-24T11:05:19.103Z,13.73
2022-10-24T11:08:25.167Z,13.94
2022-10-24T11:11:44.457Z,14.04
2022-10-24T11:15:03.603Z,14.20
2022-10-24T11:18:40.376Z,14.25
2022-10-24T11:21:39.557Z,14.12
2022-10-24T11:25:05.928Z,14.08
2022-10-24T11:28:49.897Z,14.01
2022-10-24T11:31:54.324Z,14.16
2022-10-24T11:35:33.128Z,14.22
2022-10-24T11:38:32.544Z,14.27
2022-10-24T11:41:51.175Z,14.29
2022-10-24T11:45:11.919Z,14.36
2022-10-24T11:48:44.917Z,14.18
2022-10-24T11:51:55.113Z,14.25
2022-10-24T11:55:20.778Z,14.40
2022-10-24T11:58:22.732Z,14.31
2022-10-24T12:01:58.679Z,14.29
2022-10-24T12:05:20.170Z,14.33
2022-10-24T12:08:51.157Z,14.14
2022-10-24T12:11:56.948Z,14.15
2022-10-24T12:15:46.947Z,13.94
2022-10-24T12:18:51.366Z,13.94
2022-10-24T12:22:02.437Z,14.06
2022-10-24T12:25:32.351Z,14.03
2022-10-24T12:28:29.366Z,14.20
2022-10-24T12:31:35.814Z,14.00
2022-10-24T12:34:49.198Z,13.97
2022-10-24T12:37:47.089Z,14.18
2022-10-24T12:40:55.664Z,13.98
2022-10-24T12:44:46.235Z,14.14
2022-10-24T12:48:04.680Z,13.91
2022-10-24T12:51:31.113Z,14.19
2022-10-24T12:54:44.103Z,14.27
2022-10-24T12:57:46.417Z,14.14
2022-10-24T13:00:58.976Z,14.08
2022-10-24T13:04:42.375Z,14.15
2022-10-24T13:08:03.739Z,14.18
2022-10-24T13:11:28.424Z,14.56
2022-10-24T13:15:05.250Z,14.25
2022-10-24T13:18:14.681Z,14.26
2022-10-24T13:21:52.993Z,14.47
2022-10-24T13:24:49.836Z,14.76
2022-10-24T13:28:06.689Z,15.06
2022-10-24T13:31:03.424Z,14.72
2022-10-24T13:34:34.317Z,14.51
2022-10-24T13:37:47.204Z,14.52
2022-10-24T13:40:44.766Z,14.47
2022-10-24T13:43:52.501Z,14.48
2022-10-24T13:47:27.065Z,14.40
2022-10-24T13:51:02.699Z,14.35
2022-10-24T13:54:09.042Z,14.33
2022-10-24T13:57:47.802Z,14.43
2022-10-24T14:01:00.258Z,14.43
2022-10-24T14:03:59.243Z,14.43
2022-10-24T14:07:08.494Z,14.42
2022-10-24T14:10:12.663Z,14.44
2022-10-24T14:13:17.105Z,14.60
2022-10-24T14:16:14.836Z,14.71
2022-10-24T14:19:28.391Z,14.57
2022-10-24T14:22:46.821Z,14.80
2022-10-24T14:25:43.945Z,14.64
2022-10-24T14:28:55.789Z,14.46
2022-10-24T14:32:14.067Z,14.45
2022-10-24T14:35:16.141Z,14.39
2022-10-24T14:38:16.257Z,14.43
2022-10-24T14:41:13.688Z,14.44
2022-10-24T14:44:16.778Z,14.45
2022-10-24T14:47:31.253Z,14.30
2022-10-24T14:50:43.730Z,14.41
2022-10-24T14:53:42.740Z,14.37
2022-10-24T14:56:40.200Z,14.43
2022-10-24T14:59:39.549Z,14.40
2022-10-24T15:02:42.976Z,14.51
2022-10-24T15:05:40.760Z,14.47
2022-10-24T15:08:45.871Z,14.47
2022-10-24T15:11:45.193Z,14.40
2022-10-24T15:14:49.001Z,14.35
2022-10-24T15:17:46.378Z,14.36
2022-10-24T15:20:46.915Z,14.42
2022-10-24T15:24:00.444Z,14.30
2022-10-24T15:27:13.355Z,14.38
2022-10-24T15:30:15.313Z,14.27
2022-10-24T15:33:12.145Z,14.18
2022-10-24T15:36:33.719Z,14.32
2022-10-24T15:39:30.793Z,14.22
2022-10-24T15:42:29.929Z,14.22
2022-10-24T15:45:27.295Z,14.22
2022-10-24T15:48:24.334Z,14.13
2022-10-24T15:51:24.755Z,14.11
2022-10-24T15:54:23.224Z,14.22
2022-10-24T15:57:20.042Z,14.16
2022-10-24T16:00:20.868Z,14.11
2022-10-24T16:03:23.013Z,14.11
2022-10-24T16:06:21.893Z,14.15
2022-10-24T16:09:26.500Z,14.14
2022-10-24T16:12:23.385Z,14.00
2022-10-24T16:15:34.495Z,14.00
2022-10-24T16:18:31.385Z,13.93
2022-10-24T16:21:28.222Z,13.98
2022-10-24T16:24:27.061Z,13.96
2022-10-24T16:27:23.967Z,13.88
2022-10-24T16:30:24.582Z,13.93
2022-10-24T16:33:22.410Z,13.84
2022-10-24T16:36:22.326Z,13.94
2022-10-24T16:39:21.891Z,13.83
2022-10-24T16:42:20.106Z,13.78
2022-10-24T16:45:17.805Z,13.72
2022-10-24T16:48:14.804Z,13.73
2022-10-24T16:51:18.398Z,13.73
2022-10-24T16:54:15.264Z,13.62
2022-10-24T16:57:12.144Z,13.70
2022-10-24T17:00:14.237Z,13.69
2022-10-24T17:03:11.454Z,13.64
2022-10-24T17:06:08.472Z,13.69
2022-10-24T17:09:05.385Z,13.68
2022-10-24T17:12:02.665Z,13.70
2022-10-24T17:14:59.742Z,13.73
2022-10-24T17:17:56.575Z,13.63
2022-10-24T17:21:00.171Z,13.60
2022-10-24T17:23:57.396Z,13.49
2022-10-24T17:26:54.750Z,13.61
2022-10-24T17:29:52.085Z,13.57
2022-10-24T17:32:49.696Z,13.57
2022-10-24T17:35:53.005Z,13.45
2022-10-24T17:39:04.230Z,13.52
2022-10-24T17:42:03.844Z,13.54
2022-10-24T17:45:01.176Z,13.58
2022-10-24T17:47:58.240Z,13.64
2022-10-24T17:50:58.394Z,13.59
2022-10-24T17:53:55.328Z,13.62
2022-10-24T17:56:52.211Z,13.54
2022-10-24T17:59:49.096Z,13.59
2022-10-24T18:02:51.893Z,13.69
2022-10-24T18:05:48.736Z,13.67
2022-10-24T18:08:45.637Z,13.61
2022-10-24T18:11:43.324Z,13.57
2022-10-24T18:14:40.188Z,13.54
2022-10-24T18:17:37.381Z,13.54
2022-10-24T18:20:35.131Z,13.59
2022-10-24T18:23:31.979Z,13.53
2022-10-24T18:26:29.495Z,13.53
2022-10-24T18:29:26.416Z,13.59
2022-10-24T18:32:23.371Z,13.58
2022-10-24T18:35:22.353Z,13.59
2022-10-24T18:38:19.176Z,13.48
2022-10-24T18:41:34.067Z,13.39
2022-10-24T18:44:34.733Z,13.51
2022-10-24T18:47:31.813Z,13.55
2022-10-24T18:50:29.084Z,13.56
2022-10-24T18:53:28.833Z,13.41
2022-10-24T18:56:26.056Z,13.48
2022-10-24T18:59:23.111Z,13.42
2022-10-24T19:02:56.343Z,13.46
2022-10-24T19:06:14.231Z,13.50
2022-10-24T19:09:20.897Z,13.34
2022-10-24T19:12:17.876Z,13.34
2022-10-24T19:15:15.574Z,13.40
2022-10-24T19:18:16.253Z,13.29
2022-10-24T19:21:13.033Z,13.35
2022-10-24T19:24:10.546Z,13.33
2022-10-24T19:27:07.368Z,13.28
2022-10-24T19:30:05.783Z,13.30
2022-10-24T19:33:02.645Z,13.23
2022-10-24T19:36:03.917Z,13.25
2022-10-24T19:39:00.866Z,13.28
2022-10-24T19:41:57.685Z,13.31
2022-10-24T19:44:56.391Z,13.28
2022-10-24T19:47:55.461Z,13.28
2022-10-24T19:50:52.316Z,13.33
2022-10-24T19:53:49.753Z,13.29
2022-10-24T19:56:47.200Z,13.41
2022-10-24T19:59:44.269Z,13.28
2022-10-24T20:02:41.837Z,13.32
2022-10-24T20:05:38.732Z,13.29
2022-10-24T20:08:35.987Z,13.28
2022-10-24T20:11:32.880Z,13.33
2022-10-24T20:14:29.972Z,13.31
2022-10-24T20:17:26.795Z,13.38
2022-10-24T20:20:25.035Z,13.23
2022-10-24T20:23:23.832Z,13.21
2022-10-24T20:26:24.841Z,13.26
2022-10-24T20:29:21.786Z,13.23
2022-10-24T20:32:18.789Z,13.25
2022-10-24T20:35:15.704Z,13.22
2022-10-24T20:38:12.608Z,13.19
2022-10-24T20:41:09.494Z,13.14
2022-10-24T20:44:07.103Z,13.23
2022-10-24T20:47:04.234Z,13.20
2022-10-24T20:50:01.078Z,13.12
2022-10-24T20:52:57.927Z,13.06
2022-10-24T20:55:54.741Z,13.14
2022-10-24T20:58:52.960Z,13.19
2022-10-24T21:01:49.933Z,13.14
2022-10-24T21:04:46.904Z,13.19
2022-10-24T21:07:43.724Z,13.10
2022-10-24T21:10:40.596Z,13.04
2022-10-24T21:13:37.424Z,12.99
2022-10-24T21:16:34.981Z,12.92
2022-10-24T21:19:31.826Z,12.97
2022-10-24T21:22:29.136Z,12.84
2022-10-24T21:25:25.959Z,12.96
2022-10-24T21:28:22.799Z,12.89
2022-10-24T21:31:21.391Z,12.87
2022-10-24T21:34:19.089Z,12.89
2022-10-24T21:37:15.934Z,12.84
2022-10-24T21:40:13.020Z,12.81
2022-10-24T21:43:09.839Z,12.78
2022-10-24T21:46:10.877Z,12.78
2022-10-24T21:49:08.664Z,12.70
2022-10-24T21:52:05.493Z,12.68
2022-10-24T21:55:02.362Z,12.74
2022-10-24T21:57:59.434Z,12.69
2022-10-24T22:00:56.548Z,12.78
2022-10-24T22:03:55.397Z,12.74
2022-10-24T22:06:53.483Z,12.71
2022-10-24T22:09:50.500Z,12.70
2022-10-24T22:12:47.374Z,12.69
2022-10-24T22:18:47.001Z,12.68
2022-10-24T22:21:47.305Z,12.63
2022-10-24T22:24:44.174Z,12.68
2022-10-24T22:27:41.042Z,12.56
2022-10-24T22:30:39.972Z,12.62
2022-10-24T22:33:38.978Z,12.62
2022-10-24T22:37:22.896Z,12.66
2022-10-24T22:40:28.321Z,12.61
2022-10-24T22:43:25.724Z,12.61
2022-10-24T22:47:29.846Z,12.61
2022-10-24T22:50:55.556Z,12.60
2022-10-24T22:53:52.661Z,12.52
2022-10-24T22:56:50.472Z,12.57
2022-10-24T22:59:47.648Z,12.51
2022-10-24T23:02:46.220Z,12.57
2022-10-24T23:06:00.306Z,12.50
2022-10-24T23:08:57.140Z,12.41
2022-10-24T23:11:54.831Z,12.42
2022-10-24T23:14:53.257Z,12.38
2022-10-24T23:17:50.883Z,12.49
2022-10-24T23:21:00.516Z,12.40
2022-10-24T23:23:57.720Z,12.49
2022-10-24T23:27:12.709Z,12.38
2022-10-24T23:30:20.345Z,12.38
2022-10-24T23:33:23.884Z,12.35
2022-10-24T23:36:25.224Z,12.36
2022-10-24T23:39:28.055Z,12.32
2022-10-24T23:42:25.365Z,12.33
2022-10-24T23:45:26.743Z,12.25
2022-10-24T23:49:04.513Z,12.33
2022-10-24T23:52:23.824Z,12.14
2022-10-24T23:55:21.361Z,12.21
2022-10-24T23:58:18.312Z,12.05
